Time;durP1;ratioP1;P1;durP2;ratioP2;P2;SDS_P1;SDS_P2;PMS_P1;PMS_P2;Temp;Humidity;BMP_temperature;BMP_pressure;BME280_temperature;BME280_humidity;BME280_pressure;Samples;Min_cycle;Max_cycle;Signal;HPM_P1;HPM_P2
2021/07/14 00:01:15;;;;;;;1.20;1.00;;;15.60;98.00;;;;;;5094725;28;21165;-63
2021/07/14 00:03:42;;;;;;;1.20;1.07;;;15.70;98.00;;;;;;5094654;28;20463;-63
2021/07/14 00:06:10;;;;;;;1.30;1.20;;;15.70;98.00;;;;;;5094842;28;20941;-62
2021/07/14 00:08:37;;;;;;;1.20;1.00;;;15.60;98.00;;;;;;5094152;28;20528;-63
2021/07/14 00:11:05;;;;;;;2.10;1.23;;;15.70;98.00;;;;;;5094698;28;20460;-64
2021/07/14 00:13:36;;;;;;;1.40;1.30;;;15.70;98.00;;;;;;5094424;28;20512;-63
2021/07/14 00:24:27;;;;;;;1.20;1.00;;;15.30;98.00;;;;;;5094294;28;20875;-64
2021/07/14 00:26:54;;;;;;;1.20;1.00;;;15.20;98.00;;;;;;5093214;28;20454;-63
2021/07/14 00:29:23;;;;;;;1.40;1.10;;;15.10;98.00;;;;;;5094251;28;21107;-62
2021/07/14 00:31:50;;;;;;;1.20;1.00;;;15.10;98.00;;;;;;5094559;28;20525;-62
2021/07/14 00:34:17;;;;;;;1.20;1.00;;;15.00;98.00;;;;;;5094160;28;20536;-62
2021/07/14 00:36:44;;;;;;;1.40;1.30;;;14.90;98.00;;;;;;5094226;28;20502;-63
2021/07/14 00:39:11;;;;;;;1.20;1.10;;;15.00;98.00;;;;;;5094189;28;20483;-62
2021/07/14 00:41:38;;;;;;;1.20;1.00;;;15.10;98.00;;;;;;5093045;28;20931;-62
2021/07/14 00:44:11;;;;;;;1.20;1.10;;;15.20;98.00;;;;;;5094247;28;20483;-62
2021/07/14 00:46:41;;;;;;;1.30;1.10;;;15.20;98.00;;;;;;5094239;28;20452;-62
2021/07/14 00:49:10;;;;;;;1.20;1.00;;;15.20;98.00;;;;;;5094171;28;20483;-62
2021/07/14 00:51:37;;;;;;;1.20;1.00;;;15.20;98.00;;;;;;5094185;28;20455;-61
2021/07/14 00:54:04;;;;;;;1.20;1.00;;;15.20;98.00;;;;;;5093812;28;20456;-62
2021/07/14 00:56:31;;;;;;;1.30;1.10;;;15.00;98.00;;;;;;5093504;28;21019;-62
2021/07/14 00:58:59;;;;;;;1.30;1.30;;;14.90;98.00;;;;;;5093791;28;20463;-62
2021/07/14 01:01:27;;;;;;;1.57;1.27;;;14.80;98.00;;;;;;5093626;28;20486;-62
2021/07/14 01:04:02;;;;;;;1.60;1.43;;;14.70;98.00;;;;;;5093315;28;20485;-62
2021/07/14 01:06:48;;;;;;;1.20;1.10;;;14.60;98.00;;;;;;5093447;28;20455;-62
2021/07/14 01:09:18;;;;;;;1.50;1.20;;;14.60;98.00;;;;;;5093407;28;20490;-62
2021/07/14 01:11:48;;;;;;;1.30;1.10;;;14.60;98.00;;;;;;5093437;28;20521;-61
2021/07/14 01:14:22;;;;;;;1.83;1.40;;;14.50;98.00;;;;;;5093306;28;20516;-62
2021/07/14 01:16:57;;;;;;;1.30;1.10;;;14.50;98.00;;;;;;5093310;28;20459;-62
2021/07/14 01:19:45;;;;;;;1.20;1.00;;;14.50;98.00;;;;;;5093128;28;20940;-62
2021/07/14 01:22:21;;;;;;;2.57;1.30;;;14.60;98.00;;;;;;5093240;28;20490;-61
2021/07/14 01:25:02;;;;;;;1.20;1.00;;;14.80;98.00;;;;;;5093067;28;20467;-62
2021/07/14 01:27:34;;;;;;;1.30;1.20;;;15.00;98.00;;;;;;5093177;28;20491;-62
2021/07/14 01:30:05;;;;;;;1.30;1.13;;;14.90;98.00;;;;;;5093065;28;20487;-61
2021/07/14 01:32:34;;;;;;;1.20;1.03;;;14.90;98.00;;;;;;5093052;28;20537;-61
2021/07/14 01:35:07;;;;;;;1.20;1.07;;;14.90;98.00;;;;;;5093027;28;20555;-62
2021/07/14 01:37:36;;;;;;;1.47;1.27;;;15.00;98.00;;;;;;5092976;28;20451;-62
2021/07/14 01:40:07;;;;;;;2.20;1.20;;;15.00;98.00;;;;;;5092697;28;20452;-64
2021/07/14 01:42:39;;;;;;;1.40;1.20;;;15.10;98.00;;;;;;5093159;28;20479;-62
2021/07/14 01:45:08;;;;;;;1.97;1.20;;;14.90;98.00;;;;;;5092904;28;20482;-62
2021/07/14 01:47:36;;;;;;;1.60;1.10;;;14.90;98.00;;;;;;5092858;28;21100;-61
2021/07/14 01:50:05;;;;;;;1.57;1.30;;;14.90;98.00;;;;;;5092661;28;20480;-62
2021/07/14 01:52:34;;;;;;;1.20;1.03;;;15.00;98.00;;;;;;5092485;28;20455;-62
2021/07/14 01:55:05;;;;;;;1.20;1.00;;;15.00;98.00;;;;;;5092950;28;20544;-62
2021/07/14 01:57:36;;;;;;;1.20;1.00;;;14.90;98.00;;;;;;5092768;28;20880;-62
2021/07/14 02:03:53;;;;;;;1.30;1.00;;;15.00;98.00;;;;;;5092691;28;20462;-62
2021/07/14 02:06:22;;;;;;;1.67;1.50;;;15.30;98.00;;;;;;5092885;28;20458;-62
2021/07/14 02:08:52;;;;;;;1.80;1.23;;;15.50;98.00;;;;;;5091338;28;20524;-62
2021/07/14 02:11:25;;;;;;;1.70;1.27;;;15.60;98.00;;;;;;5092736;28;20459;-61
2021/07/14 02:13:54;;;;;;;1.20;1.10;;;15.60;98.00;;;;;;5092167;28;20471;-62
2021/07/14 02:16:22;;;;;;;1.20;1.10;;;15.40;98.00;;;;;;5092396;28;20484;-62
2021/07/14 02:18:55;;;;;;;1.20;0.90;;;15.40;98.00;;;;;;5092008;28;20545;-62
2021/07/14 02:21:22;;;;;;;1.60;1.20;;;15.40;98.00;;;;;;5092263;28;20458;-62
2021/07/14 02:23:49;;;;;;;2.23;1.43;;;15.30;98.00;;;;;;5091787;28;20467;-61
2021/07/14 02:26:17;;;;;;;1.20;1.00;;;15.30;98.00;;;;;;5092087;28;20493;-62
2021/07/14 02:28:44;;;;;;;1.20;1.10;;;15.20;98.00;;;;;;5091832;28;20547;-61
2021/07/14 02:31:13;;;;;;;1.97;1.10;;;15.20;98.00;;;;;;5091912;28;20495;-62
2021/07/14 02:33:40;;;;;;;1.40;1.10;;;15.20;98.00;;;;;;5091862;28;20467;-62
2021/07/14 02:36:11;;;;;;;1.20;1.00;;;15.10;98.00;;;;;;5092025;28;20524;-62
2021/07/14 02:38:44;;;;;;;2.07;1.50;;;15.00;98.00;;;;;;5074463;28;20452;-61
2021/07/14 02:41:16;;;;;;;1.20;1.00;;;14.90;98.00;;;;;;5091918;28;21003;-61
2021/07/14 02:43:46;;;;;;;1.40;1.30;;;14.90;98.00;;;;;;5091619;28;20461;-61
2021/07/14 02:46:23;;;;;;;1.20;1.00;;;14.80;98.00;;;;;;5092014;28;20489;-62
2021/07/14 02:48:54;;;;;;;1.90;1.23;;;14.90;98.00;;;;;;5091877;28;20490;-61
2021/07/14 02:51:23;;;;;;;1.20;1.03;;;14.80;98.00;;;;;;5091785;28;20456;-61
2021/07/14 02:53:54;;;;;;;1.50;1.30;;;14.70;98.00;;;;;;5092006;28;20491;-61
2021/07/14 02:56:23;;;;;;;1.53;1.30;;;14.80;98.00;;;;;;5091702;28;20494;-61
2021/07/14 02:58:55;;;;;;;1.43;1.13;;;14.90;98.00;;;;;;5091910;28;20454;-61
2021/07/14 03:01:23;;;;;;;3.70;1.60;;;14.80;98.00;;;;;;5091726;28;20490;-62
2021/07/14 03:03:52;;;;;;;1.40;1.10;;;14.60;98.00;;;;;;5092875;28;20513;-61
2021/07/14 03:06:20;;;;;;;1.30;1.00;;;14.40;98.00;;;;;;5096000;28;20965;-61
2021/07/14 03:08:51;;;;;;;1.20;1.00;;;14.30;98.00;;;;;;5096074;28;20586;-61
2021/07/14 03:11:19;;;;;;;1.20;1.07;;;14.30;98.00;;;;;;5095975;28;20458;-62
2021/07/14 03:13:47;;;;;;;1.20;1.00;;;14.20;98.00;;;;;;5095765;28;20517;-61
2021/07/14 03:16:15;;;;;;;1.63;1.10;;;14.10;98.00;;;;;;5095732;28;20524;-61
2021/07/14 03:18:50;;;;;;;1.20;1.10;;;14.10;98.00;;;;;;5095776;28;20508;-61
2021/07/14 03:21:18;;;;;;;1.20;1.07;;;14.10;98.00;;;;;;5095739;28;20487;-62
2021/07/14 03:23:46;;;;;;;1.70;1.17;;;14.20;98.00;;;;;;5095539;28;20512;-62
2021/07/14 03:26:16;;;;;;;1.20;1.03;;;14.30;98.00;;;;;;5095495;28;20481;-60
2021/07/14 03:28:44;;;;;;;1.23;1.03;;;14.30;98.00;;;;;;5095653;28;21198;-62
2021/07/14 03:31:13;;;;;;;1.20;1.10;;;14.40;98.00;;;;;;5095427;28;20513;-62
2021/07/14 03:33:40;;;;;;;1.30;1.10;;;14.40;98.00;;;;;;5095249;28;20497;-61
2021/07/14 03:36:09;;;;;;;1.20;1.03;;;14.40;98.00;;;;;;5095353;28;20631;-61
2021/07/14 03:38:37;;;;;;;1.20;1.00;;;14.40;98.00;;;;;;5095179;28;21046;-61
2021/07/14 03:41:05;;;;;;;1.40;1.20;;;14.50;98.00;;;;;;5095373;28;20498;-60
2021/07/14 03:43:34;;;;;;;1.20;1.00;;;14.40;98.00;;;;;;5095014;28;20507;-62
2021/07/14 03:46:03;;;;;;;1.20;1.00;;;14.30;98.00;;;;;;5095345;28;20460;-62
2021/07/14 03:48:32;;;;;;;1.73;1.10;;;14.40;98.00;;;;;;5094798;28;20799;-61
2021/07/14 03:51:05;;;;;;;1.47;1.37;;;14.50;98.00;;;;;;5094895;28;20453;-61
2021/07/14 03:53:35;;;;;;;1.53;1.23;;;14.50;98.00;;;;;;5094881;28;20479;-61
2021/07/14 03:56:03;;;;;;;1.20;1.00;;;14.70;98.00;;;;;;5095117;28;20455;-62
2021/07/14 03:58:30;;;;;;;1.20;1.00;;;14.80;98.00;;;;;;5094834;28;20490;-61
2021/07/14 04:00:57;;;;;;;1.20;1.00;;;14.80;98.00;;;;;;5093560;28;20511;-61
2021/07/14 04:03:27;;;;;;;1.20;1.10;;;14.80;98.00;;;;;;5094722;28;20486;-61
2021/07/14 04:05:56;;;;;;;1.20;1.00;;;14.60;98.00;;;;;;5094862;28;20488;-62
2021/07/14 04:08:27;;;;;;;1.57;1.17;;;14.50;98.00;;;;;;5094486;28;20465;-62
2021/07/14 04:10:56;;;;;;;1.40;1.10;;;14.40;98.00;;;;;;5094772;28;20514;-62
2021/07/14 04:13:23;;;;;;;1.60;1.37;;;14.50;98.00;;;;;;5094550;28;20860;-61
2021/07/14 04:15:50;;;;;;;1.20;1.10;;;14.60;98.00;;;;;;5094469;28;20486;-61
2021/07/14 04:18:18;;;;;;;1.47;1.10;;;14.60;98.00;;;;;;5094446;28;20497;-62
2021/07/14 04:20:45;;;;;;;1.20;1.07;;;14.80;98.00;;;;;;5093448;28;20478;-61
2021/07/14 04:23:12;;;;;;;1.20;1.00;;;14.90;98.00;;;;;;5094432;28;20515;-61
2021/07/14 04:25:40;;;;;;;1.20;1.10;;;14.90;98.00;;;;;;5094308;28;20504;-62
2021/07/14 04:28:09;;;;;;;1.30;1.20;;;14.90;98.00;;;;;;5094467;28;20801;-62
2021/07/14 04:30:37;;;;;;;1.30;1.10;;;14.90;98.00;;;;;;5094218;28;20486;-62
2021/07/14 04:33:04;;;;;;;1.30;1.20;;;14.80;98.00;;;;;;5094320;28;20463;-62
2021/07/14 04:35:31;;;;;;;1.30;1.20;;;14.70;98.00;;;;;;5094196;28;20494;-62
2021/07/14 04:37:58;;;;;;;1.20;1.10;;;14.80;98.00;;;;;;5094403;28;20508;-61
2021/07/14 04:40:25;;;;;;;1.20;1.00;;;14.90;98.00;;;;;;5093956;28;20941;-61
2021/07/14 04:42:52;;;;;;;1.20;1.00;;;14.90;98.00;;;;;;5094314;28;20459;-62
2021/07/14 04:45:23;;;;;;;1.30;1.23;;;15.00;98.00;;;;;;5094196;28;20491;-61
2021/07/14 04:47:51;;;;;;;2.00;1.43;;;14.90;98.00;;;;;;5093095;28;20458;-61
2021/07/14 04:50:18;;;;;;;1.30;1.20;;;14.80;98.00;;;;;;5093850;28;20559;-62
2021/07/14 04:52:45;;;;;;;1.20;1.10;;;14.60;98.00;;;;;;5093879;28;20866;-61
2021/07/14 04:55:12;;;;;;;1.47;1.40;;;14.50;98.00;;;;;;5093572;28;20929;-61
2021/07/14 04:57:39;;;;;;;1.40;1.20;;;14.50;98.00;;;;;;5093808;28;20498;-61
2021/07/14 05:00:09;;;;;;;2.00;1.30;;;14.60;98.00;;;;;;5093437;28;20459;-61
2021/07/14 05:02:37;;;;;;;1.40;1.20;;;14.60;98.00;;;;;;5093451;28;20518;-61
2021/07/14 05:05:05;;;;;;;1.30;1.10;;;14.60;98.00;;;;;;5093471;28;20451;-61
2021/07/14 05:07:32;;;;;;;1.20;1.00;;;14.60;98.00;;;;;;5093646;28;20515;-62
2021/07/14 05:10:00;;;;;;;1.20;1.10;;;14.70;98.00;;;;;;5093353;28;20515;-61
2021/07/14 05:12:27;;;;;;;1.20;1.10;;;14.70;98.00;;;;;;5093387;28;20459;-62
2021/07/14 05:14:54;;;;;;;1.90;1.30;;;14.70;98.00;;;;;;5093455;28;20459;-61
2021/07/14 05:17:21;;;;;;;1.50;1.20;;;14.80;98.00;;;;;;5093381;28;20511;-62
2021/07/14 05:19:49;;;;;;;1.20;1.00;;;14.90;98.00;;;;;;5093243;28;21022;-61
2021/07/14 05:22:17;;;;;;;1.20;1.00;;;14.90;98.00;;;;;;5093139;28;20492;-62
2021/07/14 05:24:45;;;;;;;1.20;1.07;;;14.90;98.00;;;;;;5093134;28;20490;-62
2021/07/14 05:27:12;;;;;;;1.73;1.20;;;14.90;98.00;;;;;;5092603;28;20456;-61
2021/07/14 05:29:39;;;;;;;1.50;1.17;;;15.00;98.00;;;;;;5092919;28;20519;-62
2021/07/14 05:32:07;;;;;;;1.20;1.00;;;15.20;98.00;;;;;;5092766;28;20451;-62
2021/07/14 05:34:35;;;;;;;2.23;1.37;;;15.30;98.00;;;;;;5092334;28;20459;-62
2021/07/14 05:37:04;;;;;;;1.30;1.20;;;15.40;98.00;;;;;;5092231;28;20490;-62
2021/07/14 05:39:32;;;;;;;1.40;1.20;;;15.40;98.00;;;;;;5092182;28;20451;-61
2021/07/14 05:41:59;;;;;;;1.67;1.20;;;15.50;98.00;;;;;;5092612;28;20456;-61
2021/07/14 05:44:26;;;;;;;1.20;1.00;;;15.60;98.00;;;;;;5092808;28;20498;-61
2021/07/14 05:46:53;;;;;;;1.23;1.10;;;15.60;98.00;;;;;;5092783;28;20993;-62
2021/07/14 05:49:20;;;;;;;1.40;1.20;;;15.60;98.00;;;;;;5091520;28;20458;-64
2021/07/14 05:51:47;;;;;;;2.23;1.20;;;15.50;98.00;;;;;;5092717;28;20988;-61
2021/07/14 05:54:18;;;;;;;1.20;1.10;;;15.40;98.00;;;;;;5092489;28;20468;-61
2021/07/14 05:56:45;;;;;;;1.50;1.10;;;15.50;98.00;;;;;;5091901;28;20456;-62
2021/07/14 05:59:13;;;;;;;1.53;1.20;;;15.50;98.00;;;;;;5092663;28;20487;-60
2021/07/14 06:01:40;;;;;;;1.40;1.17;;;15.50;98.00;;;;;;5092649;28;20455;-62
2021/07/14 06:04:07;;;;;;;1.30;1.20;;;15.50;98.00;;;;;;5092764;28;20910;-62
2021/07/14 06:06:35;;;;;;;1.50;1.30;;;15.60;98.00;;;;;;5092838;28;20459;-61
2021/07/14 06:09:03;;;;;;;1.20;1.00;;;15.50;98.00;;;;;;5091235;28;20505;-62
2021/07/14 06:11:31;;;;;;;1.30;1.17;;;15.60;98.00;;;;;;5092159;28;20522;-63
2021/07/14 06:13:58;;;;;;;1.67;1.23;;;15.70;98.00;;;;;;5092069;28;20864;-61
2021/07/14 06:16:28;;;;;;;1.20;1.10;;;15.80;98.00;;;;;;5092176;28;21074;-62
2021/07/14 06:18:55;;;;;;;1.20;1.00;;;15.90;98.00;;;;;;5092124;28;20467;-62
2021/07/14 06:21:23;;;;;;;1.20;1.10;;;15.80;98.00;;;;;;5092014;28;20468;-62
2021/07/14 06:23:50;;;;;;;1.20;1.00;;;15.80;98.00;;;;;;5091786;28;20463;-64
2021/07/14 06:26:17;;;;;;;1.40;1.30;;;15.70;98.00;;;;;;5092206;28;20944;-63
2021/07/14 06:28:46;;;;;;;1.20;1.00;;;15.70;98.00;;;;;;5091979;28;20463;-62
2021/07/14 06:31:13;;;;;;;1.20;1.00;;;15.90;98.00;;;;;;5091960;28;20526;-62
2021/07/14 06:33:41;;;;;;;1.47;1.03;;;15.90;98.00;;;;;;5091597;28;20797;-62
2021/07/14 06:36:08;;;;;;;1.20;1.10;;;15.90;98.00;;;;;;5091720;28;20488;-62
2021/07/14 06:38:36;;;;;;;1.93;1.30;;;15.90;98.00;;;;;;5090724;28;20519;-62
2021/07/14 06:41:04;;;;;;;1.20;1.10;;;15.90;98.00;;;;;;5091796;28;20520;-61
2021/07/14 06:43:42;;;;;;;1.60;1.30;;;15.90;98.00;;;;;;5091737;28;20501;-62
2021/07/14 06:46:12;;;;;;;1.20;1.00;;;16.00;98.00;;;;;;5091985;28;20463;-62
2021/07/14 06:48:40;;;;;;;1.20;1.00;;;16.00;98.00;;;;;;5091421;28;20463;-63
2021/07/14 06:51:08;;;;;;;1.20;1.03;;;16.20;98.00;;;;;;5091736;28;20539;-62
2021/07/14 06:53:35;;;;;;;1.87;1.20;;;16.20;98.00;;;;;;5091694;28;20487;-63
2021/07/14 06:56:02;;;;;;;1.20;1.10;;;16.40;98.00;;;;;;5090537;28;20463;-62
2021/07/14 06:58:31;;;;;;;1.20;1.20;;;16.60;98.00;;;;;;5091701;28;20525;-62
2021/07/14 07:00:58;;;;;;;1.30;1.17;;;16.60;98.00;;;;;;5090556;28;20512;-62
2021/07/14 07:03:27;;;;;;;1.30;1.20;;;16.70;98.00;;;;;;5097059;28;20463;-62
2021/07/14 07:05:54;;;;;;;1.67;1.17;;;16.80;98.00;;;;;;5096366;28;20948;-61
2021/07/14 07:08:21;;;;;;;1.20;1.20;;;16.70;98.00;;;;;;5101726;28;21126;-62
2021/07/14 07:10:49;;;;;;;1.30;1.20;;;16.70;98.00;;;;;;5096031;28;20547;-62
2021/07/14 07:13:18;;;;;;;1.20;1.10;;;16.70;98.00;;;;;;5106999;28;20947;-62
2021/07/14 07:15:45;;;;;;;1.73;1.20;;;16.60;98.00;;;;;;5098193;28;20537;-63
2021/07/14 07:18:12;;;;;;;1.20;1.10;;;16.50;98.00;;;;;;5106912;28;20486;-63
2021/07/14 07:20:41;;;;;;;1.20;1.00;;;16.40;98.00;;;;;;5102164;28;21053;-62
2021/07/14 07:23:08;;;;;;;1.20;1.13;;;16.30;98.00;;;;;;5099042;28;20505;-62
2021/07/14 07:25:35;;;;;;;1.20;1.10;;;16.40;98.00;;;;;;5099526;28;20459;-62
2021/07/14 07:28:04;;;;;;;2.27;1.37;;;16.60;98.00;;;;;;5090283;28;20452;-62
2021/07/14 07:30:33;;;;;;;2.80;1.20;;;16.70;98.00;;;;;;5090911;28;20553;-62
2021/07/14 07:33:00;;;;;;;1.20;1.00;;;16.70;98.00;;;;;;5096833;28;20447;-62
2021/07/14 07:35:28;;;;;;;2.47;1.57;;;16.60;98.00;;;;;;5087578;28;20508;-62
2021/07/14 07:37:56;;;;;;;1.53;1.20;;;16.50;98.00;;;;;;5105062;28;20459;-61
2021/07/14 07:40:23;;;;;;;1.20;1.10;;;16.50;98.00;;;;;;5101534;28;20452;-61
2021/07/14 07:42:51;;;;;;;1.20;1.20;;;16.50;98.00;;;;;;5088523;28;20870;-61
2021/07/14 07:45:18;;;;;;;1.47;1.17;;;16.90;98.00;;;;;;5095322;28;20447;-61
2021/07/14 07:47:45;;;;;;;1.30;1.30;;;17.30;98.00;;;;;;5102489;28;20544;-62
2021/07/14 07:50:13;;;;;;;1.20;1.20;;;17.70;98.00;;;;;;5101778;28;20576;-61
2021/07/14 07:52:41;;;;;;;1.30;1.20;;;18.10;98.00;;;;;;5106939;28;20519;-63
2021/07/14 07:55:14;;;;;;;1.67;1.30;;;18.30;98.00;;;;;;5110469;28;20526;-62
2021/07/14 07:57:42;;;;;;;1.23;1.10;;;18.60;98.00;;;;;;5104289;28;20479;-64
2021/07/14 08:00:13;;;;;;;1.30;1.27;;;18.60;98.00;;;;;;5093295;28;20488;-63
2021/07/14 08:02:40;;;;;;;1.60;1.40;;;18.30;98.00;;;;;;5092944;28;20488;-65
2021/07/14 08:05:09;;;;;;;1.87;1.37;;;18.00;98.00;;;;;;5093431;28;20462;-61
2021/07/14 08:07:36;;;;;;;1.60;1.40;;;17.60;98.00;;;;;;5098360;28;20527;-62
2021/07/14 08:10:05;;;;;;;1.20;1.00;;;17.60;98.00;;;;;;5101450;28;20517;-63
2021/07/14 08:12:33;;;;;;;1.20;1.20;;;17.50;98.00;;;;;;5102357;28;20631;-62
2021/07/14 08:15:02;;;;;;;1.20;1.20;;;17.30;98.00;;;;;;5104099;28;20484;-62
2021/07/14 08:17:30;;;;;;;1.50;1.37;;;17.20;98.00;;;;;;5101588;28;20967;-62
2021/07/14 08:19:56;;;;;;;1.30;1.10;;;17.20;98.00;;;;;;5107159;28;20516;-62
2021/07/14 08:22:23;;;;;;;1.30;1.13;;;17.10;98.00;;;;;;5109327;28;20482;-63
2021/07/14 08:24:50;;;;;;;1.63;1.30;;;17.00;98.00;;;;;;5104277;28;20463;-63
2021/07/14 08:27:17;;;;;;;1.77;1.20;;;16.80;98.00;;;;;;5106358;28;20482;-62
2021/07/14 08:29:46;;;;;;;1.30;1.13;;;16.60;98.00;;;;;;5096510;28;20975;-63
2021/07/14 08:32:13;;;;;;;1.50;1.13;;;16.60;98.00;;;;;;5098583;28;21039;-63
2021/07/14 08:34:40;;;;;;;2.33;1.40;;;16.60;98.00;;;;;;5096723;28;20521;-63
2021/07/14 08:37:07;;;;;;;1.20;1.00;;;16.60;98.00;;;;;;5077806;28;20485;-62
2021/07/14 08:39:34;;;;;;;1.20;1.10;;;16.90;98.00;;;;;;5089539;28;20955;-64
2021/07/14 08:42:02;;;;;;;1.40;1.30;;;16.90;98.00;;;;;;5101777;28;20464;-63
2021/07/14 08:44:30;;;;;;;1.40;1.30;;;17.00;98.00;;;;;;5102611;28;21068;-63
2021/07/14 08:47:00;;;;;;;1.20;1.10;;;17.20;98.00;;;;;;5105963;28;20464;-62
2021/07/14 08:49:27;;;;;;;1.20;1.00;;;17.10;98.00;;;;;;5103440;28;20460;-63
2021/07/14 08:51:58;;;;;;;1.20;1.20;;;17.20;98.00;;;;;;5096911;28;20478;-63
2021/07/14 08:54:26;;;;;;;1.67;1.30;;;17.10;98.00;;;;;;5105762;28;20528;-63
2021/07/14 08:56:53;;;;;;;1.20;1.10;;;17.10;98.00;;;;;;5096016;28;20556;-63
2021/07/14 08:59:21;;;;;;;1.20;1.00;;;16.90;98.00;;;;;;5105669;28;21006;-63
2021/07/14 09:01:49;;;;;;;1.30;1.30;;;16.70;98.00;;;;;;5096269;28;20515;-64
2021/07/14 09:04:18;;;;;;;1.60;1.20;;;16.70;98.00;;;;;;5093103;28;20511;-65
2021/07/14 09:06:45;;;;;;;1.40;1.23;;;16.80;98.00;;;;;;5095997;28;20573;-63
2021/07/14 09:09:12;;;;;;;1.40;1.20;;;16.90;98.00;;;;;;5100808;28;20491;-64
2021/07/14 09:11:50;;;;;;;2.03;1.40;;;16.90;98.00;;;;;;5104745;28;20518;-63
2021/07/14 09:14:27;;;;;;;1.20;1.00;;;17.10;98.00;;;;;;5094712;28;20456;-63
2021/07/14 09:16:54;;;;;;;1.50;1.30;;;17.00;98.00;;;;;;5091451;28;20550;-64
2021/07/14 09:19:26;;;;;;;1.73;1.50;;;17.10;98.00;;;;;;5106403;28;20960;-63
2021/07/14 09:21:54;;;;;;;1.57;1.57;;;17.30;98.00;;;;;;5109203;28;20455;-63
2021/07/14 09:24:24;;;;;;;1.20;1.07;;;17.40;98.00;;;;;;5102222;28;20491;-63
2021/07/14 09:26:52;;;;;;;1.20;1.13;;;17.50;98.00;;;;;;5107969;28;20536;-63
2021/07/14 09:29:19;;;;;;;1.43;1.23;;;17.50;98.00;;;;;;5092707;28;20879;-63
2021/07/14 09:31:47;;;;;;;1.97;1.40;;;17.60;98.00;;;;;;5098445;28;20522;-63
2021/07/14 09:34:28;;;;;;;2.57;1.40;;;17.80;98.00;;;;;;5099889;28;20542;-63
2021/07/14 09:37:01;;;;;;;1.37;1.20;;;17.80;98.00;;;;;;5107930;28;20477;-63
2021/07/14 09:39:33;;;;;;;1.20;1.17;;;17.90;98.00;;;;;;5108408;28;20482;-62
2021/07/14 09:42:07;;;;;;;1.40;1.10;;;17.80;98.00;;;;;;5083912;28;20525;-62
2021/07/14 09:44:35;;;;;;;1.47;1.30;;;17.80;98.00;;;;;;5092547;28;20483;-64
2021/07/14 09:47:18;;;;;;;1.20;1.00;;;17.80;98.00;;;;;;5091947;28;20458;-62
2021/07/14 09:49:47;;;;;;;1.57;1.47;;;17.80;98.00;;;;;;5104593;28;20491;-63
2021/07/14 09:52:19;;;;;;;1.30;1.27;;;17.80;98.00;;;;;;5088364;28;20491;-63
2021/07/14 09:54:46;;;;;;;1.20;1.10;;;17.80;98.00;;;;;;5103316;28;20520;-64
2021/07/14 09:57:15;;;;;;;1.93;1.50;;;17.80;98.00;;;;;;5099670;28;20831;-63
2021/07/14 09:59:43;;;;;;;1.80;1.40;;;18.00;98.00;;;;;;5096666;28;20448;-63
2021/07/14 10:02:13;;;;;;;1.43;1.40;;;18.10;98.00;;;;;;5096199;28;20541;-64
2021/07/14 10:04:41;;;;;;;1.40;1.10;;;18.20;98.00;;;;;;5089604;28;20876;-62
2021/07/14 10:07:14;;;;;;;1.33;1.27;;;18.40;98.00;;;;;;5107184;28;20459;-63
2021/07/14 10:09:44;;;;;;;1.30;1.20;;;18.20;98.00;;;;;;5095553;28;20500;-62
2021/07/14 10:12:28;;;;;;;1.20;1.10;;;18.30;98.00;;;;;;5090846;28;20527;-63
2021/07/14 10:14:57;;;;;;;1.77;1.47;;;18.50;98.00;;;;;;5096923;28;20458;-64
2021/07/14 10:17:37;;;;;;;1.93;1.53;;;18.50;98.00;;;;;;5091200;28;20451;-64
2021/07/14 10:20:25;;;;;;;1.40;1.20;;;18.30;98.00;;;;;;5107870;28;20455;-64
2021/07/14 10:22:55;;;;;;;1.50;1.27;;;18.50;98.00;;;;;;5084467;28;20795;-65
2021/07/14 10:25:23;;;;;;;1.40;1.30;;;18.60;98.00;;;;;;5098464;28;20513;-64
2021/07/14 10:27:52;;;;;;;1.47;1.40;;;18.60;98.00;;;;;;5098540;28;20486;-63
2021/07/14 10:30:21;;;;;;;1.97;1.57;;;18.60;98.00;;;;;;5106919;28;20539;-64
2021/07/14 10:32:49;;;;;;;1.40;1.10;;;18.70;98.00;;;;;;5099554;28;21073;-64
2021/07/14 10:35:18;;;;;;;1.30;1.30;;;18.80;98.00;;;;;;5100305;28;20463;-65
2021/07/14 10:37:54;;;;;;;1.20;1.17;;;18.90;98.00;;;;;;5107751;28;20475;-64
2021/07/14 10:40:24;;;;;;;1.40;1.27;;;19.10;98.00;;;;;;5088039;28;20456;-65
2021/07/14 10:42:53;;;;;;;1.30;1.30;;;19.30;98.00;;;;;;5107047;28;20491;-64
2021/07/14 10:45:22;;;;;;;1.70;1.40;;;19.50;98.00;;;;;;5099082;28;20949;-65
2021/07/14 10:47:53;;;;;;;1.20;1.10;;;19.70;98.00;;;;;;5106038;28;20452;-64
2021/07/14 10:50:21;;;;;;;1.20;1.20;;;19.90;98.00;;;;;;5096439;28;20850;-64
2021/07/14 10:52:49;;;;;;;1.30;1.20;;;19.80;98.00;;;;;;5089968;28;20527;-64
2021/07/14 10:55:21;;;;;;;1.63;1.40;;;19.70;98.00;;;;;;5090798;28;20469;-64
2021/07/14 10:57:50;;;;;;;1.70;1.60;;;19.80;98.00;;;;;;5098501;28;21007;-65
2021/07/14 11:00:18;;;;;;;1.30;1.20;;;19.70;98.00;;;;;;5094268;28;20569;-64
2021/07/14 11:02:47;;;;;;;1.73;1.47;;;19.80;98.00;;;;;;5098590;28;20467;-64
2021/07/14 11:05:16;;;;;;;1.93;1.70;;;19.90;98.00;;;;;;5107086;28;20486;-63
2021/07/14 11:07:46;;;;;;;1.40;1.23;;;20.20;98.00;;;;;;5106733;28;20479;-64
2021/07/14 11:10:34;;;;;;;1.70;1.40;;;20.40;98.00;;;;;;5102721;28;20453;-64
2021/07/14 11:13:30;;;;;;;1.33;1.20;;;20.30;98.00;;;;;;5097496;28;20490;-63
2021/07/14 11:15:59;;;;;;;1.53;1.53;;;20.30;98.00;;;;;;5091176;28;20538;-62
2021/07/14 11:18:40;;;;;;;1.73;1.60;;;20.10;98.00;;;;;;5099091;28;20501;-62
2021/07/14 11:21:08;;;;;;;1.47;1.30;;;20.10;98.00;;;;;;5099493;28;20509;-64
2021/07/14 11:23:47;;;;;;;2.07;1.70;;;20.20;98.00;;;;;;5101571;28;20475;-64
2021/07/14 11:26:14;;;;;;;1.50;1.30;;;20.30;98.00;;;;;;5098344;28;20451;-64
2021/07/14 11:29:13;;;;;;;1.80;1.37;;;20.40;98.00;;;;;;5094072;28;20447;-64
2021/07/14 11:31:42;;;;;;;1.50;1.30;;;20.50;98.00;;;;;;5102330;28;20540;-64
2021/07/14 11:34:28;;;;;;;1.30;1.10;;;20.60;98.00;;;;;;5092073;28;20464;-64
2021/07/14 11:36:56;;;;;;;1.30;1.20;;;20.80;98.00;;;;;;5093464;28;21008;-64
2021/07/14 11:39:29;;;;;;;1.43;1.30;;;20.90;98.00;;;;;;5094291;28;20552;-65
2021/07/14 11:42:17;;;;;;;1.50;1.43;;;21.10;98.00;;;;;;5103076;28;20493;-65
2021/07/14 11:44:52;;;;;;;1.20;1.20;;;21.10;98.00;;;;;;5097092;28;20451;-65
2021/07/14 11:47:37;;;;;;;1.30;1.20;;;21.30;98.00;;;;;;5110247;28;20478;-65
2021/07/14 11:50:05;;;;;;;1.77;1.33;;;21.40;98.00;;;;;;5102326;28;20456;-65
2021/07/14 11:52:43;;;;;;;1.50;1.43;;;21.80;98.00;;;;;;5100723;28;20547;-65
2021/07/14 11:55:40;;;;;;;1.60;1.50;;;22.00;98.00;;;;;;5102010;28;20443;-65
2021/07/14 11:58:08;;;;;;;4.60;1.70;;;22.20;98.00;;;;;;5011874;28;20461;-64
2021/07/14 12:00:41;;;;;;;1.70;1.50;;;22.00;98.00;;;;;;5087787;28;21030;-64
2021/07/14 12:03:08;;;;;;;1.30;1.13;;;22.10;98.00;;;;;;5104416;28;20525;-64
2021/07/14 12:05:36;;;;;;;1.20;1.17;;;22.10;98.00;;;;;;5099411;28;20456;-65
2021/07/14 12:08:11;;;;;;;1.47;1.30;;;22.30;98.00;;;;;;5100572;28;20490;-64
2021/07/14 12:10:39;;;;;;;1.60;1.30;;;22.40;98.00;;;;;;5094675;28;20515;-63
2021/07/14 12:13:06;;;;;;;1.20;1.20;;;22.30;98.00;;;;;;5099175;28;20496;-63
2021/07/14 12:15:34;;;;;;;1.47;1.17;;;22.00;98.00;;;;;;5107265;28;20937;-63
2021/07/14 12:18:08;;;;;;;1.50;1.20;;;21.80;98.00;;;;;;5115225;28;20462;-65
2021/07/14 12:20:36;;;;;;;1.77;1.40;;;21.60;98.00;;;;;;5114870;28;20493;-65
2021/07/14 12:23:13;;;;;;;1.60;1.33;;;21.70;98.00;;;;;;5114578;28;20451;-64
2021/07/14 12:25:40;;;;;;;1.20;1.20;;;21.90;98.00;;;;;;5115000;28;20953;-65
2021/07/14 12:28:10;;;;;;;1.30;1.20;;;22.00;98.00;;;;;;5114735;28;21052;-65
2021/07/14 12:30:41;;;;;;;1.30;1.20;;;22.50;98.00;;;;;;5113995;28;20455;-65
2021/07/14 12:33:11;;;;;;;5.23;2.27;;;23.30;98.00;;;;;;5113806;28;20543;-66
2021/07/14 12:35:40;;;;;;;1.20;1.10;;;23.70;98.00;;;;;;5112992;28;20516;-64
2021/07/14 12:38:09;;;;;;;1.20;1.20;;;24.00;97.50;;;;;;5113098;28;20941;-66
2021/07/14 12:40:39;;;;;;;1.60;1.50;;;24.00;95.30;;;;;;5114059;28;20455;-66
2021/07/14 12:43:11;;;;;;;1.30;1.20;;;24.50;96.20;;;;;;5114755;28;20446;-66
2021/07/14 12:45:40;;;;;;;1.50;1.33;;;24.90;91.80;;;;;;5114185;28;20486;-65
2021/07/14 12:48:11;;;;;;;1.97;1.40;;;25.20;92.20;;;;;;5114767;28;20458;-66
2021/07/14 12:50:44;;;;;;;1.50;1.40;;;24.90;90.20;;;;;;5114393;28;20557;-65
2021/07/14 12:53:11;;;;;;;1.40;1.37;;;24.40;90.60;;;;;;5114196;28;20486;-65
2021/07/14 12:55:39;;;;;;;1.30;1.20;;;24.40;91.60;;;;;;5114140;28;20910;-66
2021/07/14 12:58:08;;;;;;;1.40;1.30;;;24.10;88.90;;;;;;5114351;28;20875;-66
2021/07/14 13:00:35;;;;;;;1.60;1.30;;;24.00;90.30;;;;;;5114105;28;20530;-66
2021/07/14 13:03:06;;;;;;;1.27;1.23;;;23.70;88.20;;;;;;5114162;28;20512;-66
2021/07/14 13:05:35;;;;;;;1.70;1.10;;;23.70;88.90;;;;;;5113988;28;21005;-65
2021/07/14 13:08:08;;;;;;;1.20;1.10;;;24.00;88.70;;;;;;5113984;28;20483;-67
2021/07/14 13:10:35;;;;;;;1.40;1.20;;;24.40;89.60;;;;;;5113892;28;20446;-65
2021/07/14 13:13:03;;;;;;;1.30;1.20;;;24.70;89.00;;;;;;5113888;28;20514;-65